sensor_id;sensor_type;location;lat;lon;timestamp;pressure;altitude;pressure_sealevel;temperature;humidity
35553;BME280;21656;46.054;13.614;2022-09-17T00:00:41;99393.00;;;15.52;100.00
35553;BME280;21656;46.054;13.614;2022-09-17T00:03:07;99390.91;;;15.62;99.87
35553;BME280;21656;46.054;13.614;2022-09-17T00:05:35;99402.25;;;15.66;100.00
35553;BME280;21656;46.054;13.614;2022-09-17T00:08:05;99395.28;;;15.71;100.00
35553;BME280;21656;46.054;13.614;2022-09-17T00:10:32;99399.63;;;15.80;99.16
35553;BME280;21656;46.054;13.614;2022-09-17T00:13:02;99388.19;;;15.70;100.00
35553;BME280;21656;46.054;13.614;2022-09-17T00:15:28;99402.06;;;15.75;100.00
35553;BME280;21656;46.054;13.614;2022-09-17T00:17:54;99391.56;;;15.72;99.74
35553;BME280;21656;46.054;13.614;2022-09-17T00:20:22;99407.28;;;15.77;100.00
35553;BME280;21656;46.054;13.614;2022-09-17T00:22:47;99421.81;;;15.84;100.00
35553;BME280;21656;46.054;13.614;2022-09-17T00:25:12;99421.81;;;15.84;100.00
35553;BME280;21656;46.054;13.614;2022-09-17T00:27:38;99411.63;;;15.86;95.86
35553;BME280;21656;46.054;13.614;2022-09-17T00:30:03;99408.53;;;15.89;96.53
35553;BME280;21656;46.054;13.614;2022-09-17T00:32:29;99401.25;;;15.90;97.55
35553;BME280;21656;46.054;13.614;2022-09-17T00:34:54;99385.25;;;15.95;98.05
35553;BME280;21656;46.054;13.614;2022-09-17T00:37:21;99395.25;;;15.94;93.25
35553;BME280;21656;46.054;13.614;2022-09-17T00:39:46;99414.25;;;15.94;95.32
35553;BME280;21656;46.054;13.614;2022-09-17T00:42:13;99417.19;;;15.93;95.47
35553;BME280;21656;46.054;13.614;2022-09-17T00:44:46;99412.38;;;15.95;95.21
35553;BME280;21656;46.054;13.614;2022-09-17T00:47:21;99430.19;;;15.97;93.26
35553;BME280;21656;46.054;13.614;2022-09-17T00:49:49;99438.28;;;16.06;90.56
35553;BME280;21656;46.054;13.614;2022-09-17T00:52:20;99428.44;;;16.04;92.19
35553;BME280;21656;46.054;13.614;2022-09-17T00:55:13;99428.56;;;16.11;95.00
35553;BME280;21656;46.054;13.614;2022-09-17T00:57:38;99424.53;;;16.22;84.70
35553;BME280;21656;46.054;13.614;2022-09-17T01:00:05;99436.06;;;16.24;88.77
35553;BME280;21656;46.054;13.614;2022-09-17T01:02:33;99425.28;;;16.16;89.84
35553;BME280;21656;46.054;13.614;2022-09-17T01:04:59;99426.78;;;16.18;88.61
35553;BME280;21656;46.054;13.614;2022-09-17T01:07:50;99439.50;;;16.18;89.05
35553;BME280;21656;46.054;13.614;2022-09-17T01:10:38;99426.13;;;16.16;85.62
35553;BME280;21656;46.054;13.614;2022-09-17T01:13:26;99417.59;;;16.19;87.18
35553;BME280;21656;46.054;13.614;2022-09-17T01:22:02;99398.63;;;16.34;81.70
35553;BME280;21656;46.054;13.614;2022-09-17T01:30:08;99399.09;;;16.38;77.55
35553;BME280;21656;46.054;13.614;2022-09-17T01:32:51;99408.72;;;16.40;80.74
35553;BME280;21656;46.054;13.614;2022-09-17T01:35:24;99401.81;;;16.38;80.39
35553;BME280;21656;46.054;13.614;2022-09-17T01:38:12;99396.56;;;16.36;80.22
35553;BME280;21656;46.054;13.614;2022-09-17T01:43:44;99427.25;;;16.22;80.71
35553;BME280;21656;46.054;13.614;2022-09-17T01:46:19;99436.75;;;16.26;79.39
35553;BME280;21656;46.054;13.614;2022-09-17T01:48:47;99449.66;;;16.24;80.09
35553;BME280;21656;46.054;13.614;2022-09-17T01:51:22;99457.81;;;16.24;81.99
35553;BME280;21656;46.054;13.614;2022-09-17T01:53:56;99469.75;;;16.15;83.09
35553;BME280;21656;46.054;13.614;2022-09-17T01:56:38;99469.59;;;16.16;82.16
35553;BME280;21656;46.054;13.614;2022-09-17T01:59:13;99464.31;;;16.15;81.37
35553;BME280;21656;46.054;13.614;2022-09-17T02:01:42;99492.97;;;16.17;81.85
35553;BME280;21656;46.054;13.614;2022-09-17T02:04:14;99519.81;;;16.20;77.54
35553;BME280;21656;46.054;13.614;2022-09-17T02:06:48;99527.28;;;16.18;80.71
35553;BME280;21656;46.054;13.614;2022-09-17T02:09:21;99511.53;;;16.14;84.82
35553;BME280;21656;46.054;13.614;2022-09-17T02:11:55;99524.50;;;16.03;87.23
35553;BME280;21656;46.054;13.614;2022-09-17T02:14:43;99534.25;;;15.90;86.78
35553;BME280;21656;46.054;13.614;2022-09-17T02:17:26;99536.63;;;15.93;89.00
35553;BME280;21656;46.054;13.614;2022-09-17T02:19:53;99526.38;;;15.80;90.87
35553;BME280;21656;46.054;13.614;2022-09-17T02:22:36;99534.19;;;15.67;91.48
35553;BME280;21656;46.054;13.614;2022-09-17T02:25:09;99518.69;;;15.52;91.32
35553;BME280;21656;46.054;13.614;2022-09-17T02:28:04;99523.78;;;15.47;95.38
35553;BME280;21656;46.054;13.614;2022-09-17T02:30:33;99537.25;;;15.32;95.45
35553;BME280;21656;46.054;13.614;2022-09-17T02:33:00;99538.31;;;15.15;96.30
35553;BME280;21656;46.054;13.614;2022-09-17T02:35:27;99521.97;;;14.92;93.77
35553;BME280;21656;46.054;13.614;2022-09-17T02:37:54;99519.56;;;14.97;96.24
35553;BME280;21656;46.054;13.614;2022-09-17T02:40:22;99516.22;;;14.87;98.54
35553;BME280;21656;46.054;13.614;2022-09-17T02:49:42;99489.13;;;14.70;98.83
35553;BME280;21656;46.054;13.614;2022-09-17T02:57:22;99491.50;;;14.65;100.00
35553;BME280;21656;46.054;13.614;2022-09-17T03:00:08;99485.44;;;14.71;100.00
35553;BME280;21656;46.054;13.614;2022-09-17T03:02:46;99488.09;;;14.80;100.00
35553;BME280;21656;46.054;13.614;2022-09-17T03:05:13;99489.28;;;14.85;100.00
35553;BME280;21656;46.054;13.614;2022-09-17T03:07:41;99486.41;;;14.87;100.00
35553;BME280;21656;46.054;13.614;2022-09-17T03:10:06;99489.81;;;14.72;100.00
35553;BME280;21656;46.054;13.614;2022-09-17T03:12:33;99495.56;;;14.78;100.00
35553;BME280;21656;46.054;13.614;2022-09-17T03:14:58;99509.97;;;14.70;100.00
35553;BME280;21656;46.054;13.614;2022-09-17T03:17:24;99513.00;;;14.50;100.00
35553;BME280;21656;46.054;13.614;2022-09-17T03:19:50;99535.56;;;14.59;100.00
35553;BME280;21656;46.054;13.614;2022-09-17T03:22:15;99539.09;;;14.51;100.00
35553;BME280;21656;46.054;13.614;2022-09-17T03:24:41;99528.94;;;14.45;100.00
35553;BME280;21656;46.054;13.614;2022-09-17T03:27:06;99527.75;;;14.31;100.00
35553;BME280;21656;46.054;13.614;2022-09-17T03:29:31;99514.19;;;14.48;100.00
35553;BME280;21656;46.054;13.614;2022-09-17T03:31:57;99517.94;;;14.55;100.00
35553;BME280;21656;46.054;13.614;2022-09-17T03:34:23;99517.09;;;14.46;100.00
35553;BME280;21656;46.054;13.614;2022-09-17T03:36:49;99512.69;;;14.37;100.00
35553;BME280;21656;46.054;13.614;2022-09-17T03:39:14;99491.03;;;14.29;100.00
35553;BME280;21656;46.054;13.614;2022-09-17T03:41:39;99502.38;;;14.08;100.00
35553;BME280;21656;46.054;13.614;2022-09-17T03:44:05;99513.88;;;14.10;100.00
35553;BME280;21656;46.054;13.614;2022-09-17T03:46:31;99511.34;;;14.17;100.00
35553;BME280;21656;46.054;13.614;2022-09-17T03:48:56;99512.19;;;14.42;100.00
35553;BME280;21656;46.054;13.614;2022-09-17T03:51:21;99507.78;;;14.08;100.00
35553;BME280;21656;46.054;13.614;2022-09-17T03:53:47;99503.88;;;14.02;100.00
35553;BME280;21656;46.054;13.614;2022-09-17T03:56:12;99495.44;;;14.05;100.00
35553;BME280;21656;46.054;13.614;2022-09-17T03:58:38;99506.28;;;14.05;100.00
35553;BME280;21656;46.054;13.614;2022-09-17T04:01:04;99525.56;;;14.11;100.00
35553;BME280;21656;46.054;13.614;2022-09-17T04:03:30;99524.34;;;14.05;100.00
35553;BME280;21656;46.054;13.614;2022-09-17T04:05:56;99539.59;;;14.14;100.00
35553;BME280;21656;46.054;13.614;2022-09-17T04:08:21;99533.69;;;14.19;100.00
35553;BME280;21656;46.054;13.614;2022-09-17T04:10:47;99535.88;;;14.23;100.00
35553;BME280;21656;46.054;13.614;2022-09-17T04:13:15;99519.81;;;14.05;100.00
35553;BME280;21656;46.054;13.614;2022-09-17T04:15:41;99528.41;;;14.25;100.00
35553;BME280;21656;46.054;13.614;2022-09-17T04:18:06;99513.88;;;14.10;100.00
35553;BME280;21656;46.054;13.614;2022-09-17T04:20:32;99518.63;;;14.08;100.00
35553;BME280;21656;46.054;13.614;2022-09-17T04:22:58;99531.81;;;14.11;100.00
35553;BME280;21656;46.054;13.614;2022-09-17T04:25:23;99527.06;;;13.97;100.00
35553;BME280;21656;46.054;13.614;2022-09-17T04:27:49;99530.94;;;13.86;100.00
35553;BME280;21656;46.054;13.614;2022-09-17T04:30:14;99525.69;;;13.84;100.00
35553;BME280;21656;46.054;13.614;2022-09-17T04:32:42;99507.91;;;13.82;100.00
35553;BME280;21656;46.054;13.614;2022-09-17T04:35:08;99479.38;;;13.87;100.00
35553;BME280;21656;46.054;13.614;2022-09-17T04:37:33;99476.31;;;13.99;100.00
35553;BME280;21656;46.054;13.614;2022-09-17T04:39:59;99473.59;;;13.99;100.00
35553;BME280;21656;46.054;13.614;2022-09-17T04:42:24;99475.97;;;14.02;100.00
35553;BME280;21656;46.054;13.614;2022-09-17T04:44:49;99474.94;;;13.95;100.00
35553;BME280;21656;46.054;13.614;2022-09-17T04:47:15;99475.63;;;13.88;100.00
35553;BME280;21656;46.054;13.614;2022-09-17T04:49:40;99464.47;;;13.83;100.00
35553;BME280;21656;46.054;13.614;2022-09-17T04:52:05;99459.91;;;13.76;100.00
35553;BME280;21656;46.054;13.614;2022-09-17T04:54:31;99459.22;;;13.65;100.00
35553;BME280;21656;46.054;13.614;2022-09-17T04:56:58;99472.03;;;13.63;100.00
35553;BME280;21656;46.054;13.614;2022-09-17T04:59:23;99488.81;;;13.75;100.00
35553;BME280;21656;46.054;13.614;2022-09-17T05:01:48;99494.91;;;13.94;100.00
35553;BME280;21656;46.054;13.614;2022-09-17T05:04:14;99508.94;;;13.73;100.00
35553;BME280;21656;46.054;13.614;2022-09-17T05:06:40;99513.16;;;13.75;100.00
35553;BME280;21656;46.054;13.614;2022-09-17T05:09:06;99511.09;;;13.69;100.00
35553;BME280;21656;46.054;13.614;2022-09-17T05:11:31;99508.59;;;13.68;100.00
35553;BME280;21656;46.054;13.614;2022-09-17T05:13:57;99481.19;;;13.87;100.00
35553;BME280;21656;46.054;13.614;2022-09-17T05:16:22;99472.09;;;13.96;100.00
35553;BME280;21656;46.054;13.614;2022-09-17T05:18:48;99462.94;;;13.81;100.00
35553;BME280;21656;46.054;13.614;2022-09-17T05:21:16;99457.19;;;13.92;100.00
35553;BME280;21656;46.054;13.614;2022-09-17T05:23:41;99467.84;;;13.94;100.00
35553;BME280;21656;46.054;13.614;2022-09-17T05:26:07;99460.41;;;13.87;100.00
35553;BME280;21656;46.054;13.614;2022-09-17T05:28:32;99461.25;;;13.96;100.00
35553;BME280;21656;46.054;13.614;2022-09-17T05:30:58;99475.25;;;13.67;100.00
35553;BME280;21656;46.054;13.614;2022-09-17T05:33:24;99460.53;;;13.70;100.00
35553;BME280;21656;46.054;13.614;2022-09-17T05:35:49;99422.16;;;13.58;100.00
35553;BME280;21656;46.054;13.614;2022-09-17T05:38:14;99404.94;;;13.83;100.00
35553;BME280;21656;46.054;13.614;2022-09-17T05:40:42;99411.38;;;13.91;100.00
35553;BME280;21656;46.054;13.614;2022-09-17T05:43:08;99421.50;;;13.97;100.00
35553;BME280;21656;46.054;13.614;2022-09-17T05:45:35;99437.94;;;13.95;100.00
35553;BME280;21656;46.054;13.614;2022-09-17T05:48:03;99454.81;;;13.81;100.00
35553;BME280;21656;46.054;13.614;2022-09-17T05:50:29;99472.25;;;13.78;100.00
35553;BME280;21656;46.054;13.614;2022-09-17T05:52:55;99479.00;;;13.74;100.00
35553;BME280;21656;46.054;13.614;2022-09-17T05:55:22;99506.53;;;13.70;100.00
35553;BME280;21656;46.054;13.614;2022-09-17T05:57:50;99529.22;;;13.77;100.00
35553;BME280;21656;46.054;13.614;2022-09-17T06:00:16;99556.97;;;13.87;100.00
35553;BME280;21656;46.054;13.614;2022-09-17T06:02:42;99558.28;;;13.66;98.42
35553;BME280;21656;46.054;13.614;2022-09-17T06:05:08;99571.94;;;13.57;100.00
35553;BME280;21656;46.054;13.614;2022-09-17T06:07:37;99558.47;;;13.81;100.00
35553;BME280;21656;46.054;13.614;2022-09-17T06:10:04;99555.59;;;13.75;100.00
35553;BME280;21656;46.054;13.614;2022-09-17T06:12:30;99541.41;;;13.73;100.00
35553;BME280;21656;46.054;13.614;2022-09-17T06:14:56;99522.06;;;13.59;100.00
35553;BME280;21656;46.054;13.614;2022-09-17T06:17:22;99535.09;;;13.64;100.00
35553;BME280;21656;46.054;13.614;2022-09-17T06:19:47;99553.03;;;13.65;100.00
35553;BME280;21656;46.054;13.614;2022-09-17T06:22:12;99583.78;;;13.56;99.54
35553;BME280;21656;46.054;13.614;2022-09-17T06:24:38;99601.50;;;13.50;100.00
35553;BME280;21656;46.054;13.614;2022-09-17T06:27:03;99595.72;;;13.45;99.13
35553;BME280;21656;46.054;13.614;2022-09-17T06:29:29;99606.88;;;13.42;100.00
35553;BME280;21656;46.054;13.614;2022-09-17T06:31:54;99616.69;;;13.43;100.00
35553;BME280;21656;46.054;13.614;2022-09-17T06:34:20;99629.53;;;13.49;100.00
35553;BME280;21656;46.054;13.614;2022-09-17T06:36:47;99673.06;;;13.64;100.00
35553;BME280;21656;46.054;13.614;2022-09-17T06:39:13;99705.25;;;13.75;100.00
35553;BME280;21656;46.054;13.614;2022-09-17T06:41:40;99724.69;;;13.71;100.00
35553;BME280;21656;46.054;13.614;2022-09-17T06:44:07;99733.66;;;14.05;100.00
35553;BME280;21656;46.054;13.614;2022-09-17T06:46:32;99734.31;;;14.07;100.00
35553;BME280;21656;46.054;13.614;2022-09-17T06:48:57;99720.59;;;14.01;100.00
35553;BME280;21656;46.054;13.614;2022-09-17T06:51:23;99717.44;;;14.14;100.00
35553;BME280;21656;46.054;13.614;2022-09-17T06:53:48;99707.44;;;14.14;100.00
35553;BME280;21656;46.054;13.614;2022-09-17T06:56:13;99690.63;;;13.94;100.00
35553;BME280;21656;46.054;13.614;2022-09-17T06:58:39;99685.22;;;13.94;100.00
35553;BME280;21656;46.054;13.614;2022-09-17T07:01:06;99669.34;;;14.07;100.00
35553;BME280;21656;46.054;13.614;2022-09-17T07:03:32;99671.44;;;13.79;100.00
35553;BME280;21656;46.054;13.614;2022-09-17T07:05:57;99665.75;;;13.56;100.00
35553;BME280;21656;46.054;13.614;2022-09-17T07:08:23;99669.03;;;13.68;100.00
35553;BME280;21656;46.054;13.614;2022-09-17T07:10:50;99685.22;;;13.60;100.00
35553;BME280;21656;46.054;13.614;2022-09-17T07:13:15;99690.03;;;13.74;100.00
35553;BME280;21656;46.054;13.614;2022-09-17T07:15:41;99707.56;;;13.36;100.00
35553;BME280;21656;46.054;13.614;2022-09-17T07:18:07;99717.25;;;13.47;100.00
35553;BME280;21656;46.054;13.614;2022-09-17T07:20:33;99722.38;;;13.32;100.00
35553;BME280;21656;46.054;13.614;2022-09-17T07:22:58;99729.38;;;13.34;100.00
35553;BME280;21656;46.054;13.614;2022-09-17T07:25:24;99747.31;;;13.43;100.00
35553;BME280;21656;46.054;13.614;2022-09-17T07:27:50;99752.13;;;13.50;100.00
35553;BME280;21656;46.054;13.614;2022-09-17T07:30:16;99754.66;;;13.51;100.00
35553;BME280;21656;46.054;13.614;2022-09-17T07:32:41;99745.69;;;13.51;100.00
35553;BME280;21656;46.054;13.614;2022-09-17T07:35:07;99741.59;;;13.47;100.00
35553;BME280;21656;46.054;13.614;2022-09-17T07:37:32;99756.47;;;13.25;100.00
35553;BME280;21656;46.054;13.614;2022-09-17T07:39:58;99790.38;;;13.37;100.00
35553;BME280;21656;46.054;13.614;2022-09-17T07:42:23;99805.25;;;13.59;100.00
35553;BME280;21656;46.054;13.614;2022-09-17T07:44:48;99802.81;;;13.74;100.00
35553;BME280;21656;46.054;13.614;2022-09-17T07:47:14;99806.97;;;13.86;100.00
35553;BME280;21656;46.054;13.614;2022-09-17T07:49:39;99792.63;;;13.94;100.00
35553;BME280;21656;46.054;13.614;2022-09-17T07:52:05;99793.81;;;13.99;100.00
35553;BME280;21656;46.054;13.614;2022-09-17T07:54:32;99802.72;;;13.83;100.00
35553;BME280;21656;46.054;13.614;2022-09-17T07:56:58;99820.84;;;13.91;100.00
35553;BME280;21656;46.054;13.614;2022-09-17T07:59:23;99821.38;;;13.95;100.00
35553;BME280;21656;46.054;13.614;2022-09-17T08:01:49;99827.75;;;13.85;100.00
35553;BME280;21656;46.054;13.614;2022-09-17T08:04:14;99829.00;;;13.47;100.00
35553;BME280;21656;46.054;13.614;2022-09-17T08:06:40;99827.22;;;13.56;100.00
35553;BME280;21656;46.054;13.614;2022-09-17T08:09:06;99830.78;;;13.38;100.00
35553;BME280;21656;46.054;13.614;2022-09-17T08:11:32;99832.97;;;13.35;100.00
35553;BME280;21656;46.054;13.614;2022-09-17T08:13:57;99843.50;;;13.46;100.00
35553;BME280;21656;46.054;13.614;2022-09-17T08:16:23;99855.84;;;13.66;100.00
35553;BME280;21656;46.054;13.614;2022-09-17T08:18:54;99864.16;;;13.65;100.00
35553;BME280;21656;46.054;13.614;2022-09-17T08:21:20;99864.47;;;13.88;100.00
35553;BME280;21656;46.054;13.614;2022-09-17T08:23:45;99862.19;;;14.01;100.00
35553;BME280;21656;46.054;13.614;2022-09-17T08:26:15;99861.53;;;14.07;100.00
35553;BME280;21656;46.054;13.614;2022-09-17T08:28:46;99859.00;;;13.80;100.00
35553;BME280;21656;46.054;13.614;2022-09-17T08:31:13;99848.63;;;13.93;100.00
35553;BME280;21656;46.054;13.614;2022-09-17T08:33:40;99829.44;;;13.86;100.00
35553;BME280;21656;46.054;13.614;2022-09-17T08:36:09;99805.78;;;13.88;100.00
35553;BME280;21656;46.054;13.614;2022-09-17T08:38:36;99806.84;;;13.96;100.00
35553;BME280;21656;46.054;13.614;2022-09-17T08:46:15;99799.94;;;14.01;100.00
35553;BME280;21656;46.054;13.614;2022-09-17T08:48:46;99795.59;;;14.08;100.00
35553;BME280;21656;46.054;13.614;2022-09-17T08:54:16;99751.81;;;14.21;100.00
35553;BME280;21656;46.054;13.614;2022-09-17T08:56:47;99750.28;;;13.84;100.00
35553;BME280;21656;46.054;13.614;2022-09-17T08:59:32;99757.09;;;13.97;100.00
35553;BME280;21656;46.054;13.614;2022-09-17T09:02:44;99750.97;;;13.86;100.00
35553;BME280;21656;46.054;13.614;2022-09-17T09:05:54;99762.97;;;13.84;100.00
35553;BME280;21656;46.054;13.614;2022-09-17T09:08:41;99776.66;;;13.82;100.00
35553;BME280;21656;46.054;13.614;2022-09-17T09:11:14;99772.81;;;13.67;100.00
35553;BME280;21656;46.054;13.614;2022-09-17T09:13:49;99765.22;;;13.62;100.00
35553;BME280;21656;46.054;13.614;2022-09-17T09:16:24;99772.50;;;13.44;100.00
35553;BME280;21656;46.054;13.614;2022-09-17T09:18:58;99766.41;;;13.24;100.00
35553;BME280;21656;46.054;13.614;2022-09-17T09:32:07;99777.78;;;13.10;100.00
35553;BME280;21656;46.054;13.614;2022-09-17T09:34:38;99791.50;;;12.80;100.00
35553;BME280;21656;46.054;13.614;2022-09-17T09:37:16;99798.28;;;13.30;100.00
35553;BME280;21656;46.054;13.614;2022-09-17T09:39:45;99802.88;;;13.38;100.00
35553;BME280;21656;46.054;13.614;2022-09-17T09:42:34;99786.44;;;12.95;100.00
35553;BME280;21656;46.054;13.614;2022-09-17T09:45:24;99794.22;;;13.16;100.00
35553;BME280;21656;46.054;13.614;2022-09-17T09:48:15;99814.06;;;13.25;100.00
35553;BME280;21656;46.054;13.614;2022-09-17T09:53:46;99793.00;;;13.29;100.00
35553;BME280;21656;46.054;13.614;2022-09-17T09:58:49;99834.09;;;12.96;100.00
35553;BME280;21656;46.054;13.614;2022-09-17T10:01:18;99836.47;;;12.82;100.00
35553;BME280;21656;46.054;13.614;2022-09-17T10:03:49;99827.13;;;12.94;100.00
35553;BME280;21656;46.054;13.614;2022-09-17T10:06:17;99823.19;;;13.24;100.00
35553;BME280;21656;46.054;13.614;2022-09-17T10:11:25;99830.72;;;13.30;100.00
35553;BME280;21656;46.054;13.614;2022-09-17T10:13:52;99807.28;;;13.03;100.00
35553;BME280;21656;46.054;13.614;2022-09-17T10:16:22;99786.28;;;13.33;100.00
35553;BME280;21656;46.054;13.614;2022-09-17T10:19:20;99776.84;;;13.55;100.00
35553;BME280;21656;46.054;13.614;2022-09-17T10:21:50;99750.19;;;13.68;100.00
35553;BME280;21656;46.054;13.614;2022-09-17T10:24:26;99729.97;;;13.80;100.00
35553;BME280;21656;46.054;13.614;2022-09-17T10:27:14;99699.38;;;13.54;100.00
35553;BME280;21656;46.054;13.614;2022-09-17T10:29:46;99669.94;;;13.51;100.00
35553;BME280;21656;46.054;13.614;2022-09-17T10:32:21;99642.41;;;13.03;100.00
35553;BME280;21656;46.054;13.614;2022-09-17T10:37:51;99585.06;;;12.65;99.24
35553;BME280;21656;46.054;13.614;2022-09-17T10:42:49;99544.72;;;12.64;95.01
35553;BME280;21656;46.054;13.614;2022-09-17T10:45:26;99528.94;;;12.51;96.55
35553;BME280;21656;46.054;13.614;2022-09-17T10:47:54;99532.84;;;12.56;96.45
35553;BME280;21656;46.054;13.614;2022-09-17T10:50:29;99519.78;;;12.70;99.16
35553;BME280;21656;46.054;13.614;2022-09-17T10:53:02;99518.19;;;12.85;100.00
35553;BME280;21656;46.054;13.614;2022-09-17T10:55:40;99491.53;;;12.90;100.00
35553;BME280;21656;46.054;13.614;2022-09-17T11:01:39;99527.56;;;12.73;100.00
35553;BME280;21656;46.054;13.614;2022-09-17T11:07:00;99518.97;;;12.77;100.00
35553;BME280;21656;46.054;13.614;2022-09-17T11:15:28;99519.94;;;12.94;98.72
35553;BME280;21656;46.054;13.614;2022-09-17T11:31:48;99552.19;;;12.96;81.70
35553;BME280;21656;46.054;13.614;2022-09-17T11:42:11;99547.72;;;13.13;85.02
35553;BME280;21656;46.054;13.614;2022-09-17T11:45:05;99564.22;;;13.28;92.68
35553;BME280;21656;46.054;13.614;2022-09-17T11:47:43;99579.97;;;13.32;91.49
35553;BME280;21656;46.054;13.614;2022-09-17T11:53:31;99620.41;;;13.42;86.78
35553;BME280;21656;46.054;13.614;2022-09-17T11:56:20;99644.53;;;13.35;88.75
35553;BME280;21656;46.054;13.614;2022-09-17T11:58:56;99648.16;;;13.52;89.69
35553;BME280;21656;46.054;13.614;2022-09-17T12:07:38;99678.50;;;13.72;98.06
35553;BME280;21656;46.054;13.614;2022-09-17T12:13:01;99675.72;;;13.90;95.74
35553;BME280;21656;46.054;13.614;2022-09-17T12:15:33;99675.56;;;13.92;92.65
35553;BME280;21656;46.054;13.614;2022-09-17T12:21:08;99713.75;;;13.80;94.04
35553;BME280;21656;46.054;13.614;2022-09-17T12:23:43;99698.94;;;14.01;91.50
35553;BME280;21656;46.054;13.614;2022-09-17T12:34:25;99695.06;;;14.03;91.38
35553;BME280;21656;46.054;13.614;2022-09-17T12:37:02;99710.38;;;14.29;96.70
35553;BME280;21656;46.054;13.614;2022-09-17T12:40:47;99717.78;;;14.19;93.92
35553;BME280;21656;46.054;13.614;2022-09-17T12:51:56;99713.00;;;14.55;97.23
35553;BME280;21656;46.054;13.614;2022-09-17T12:54:35;99715.56;;;14.65;98.05
35553;BME280;21656;46.054;13.614;2022-09-17T12:57:15;99727.25;;;14.23;96.11
35553;BME280;21656;46.054;13.614;2022-09-17T12:59:51;99744.50;;;14.56;97.24
35553;BME280;21656;46.054;13.614;2022-09-17T13:16:42;99737.44;;;15.37;91.88
35553;BME280;21656;46.054;13.614;2022-09-17T13:19:29;99750.84;;;15.30;89.46
35553;BME280;21656;46.054;13.614;2022-09-17T13:22:07;99752.19;;;15.10;83.83
35553;BME280;21656;46.054;13.614;2022-09-17T13:24:37;99767.78;;;15.32;90.32
35553;BME280;21656;46.054;13.614;2022-09-17T13:27:04;99774.06;;;15.41;90.44
35553;BME280;21656;46.054;13.614;2022-09-17T13:42:50;99758.59;;;15.82;85.02
35553;BME280;21656;46.054;13.614;2022-09-17T13:45:20;99761.09;;;16.00;86.14
35553;BME280;21656;46.054;13.614;2022-09-17T13:48:02;99749.31;;;16.16;84.23
35553;BME280;21656;46.054;13.614;2022-09-17T13:50:33;99751.84;;;16.18;80.50
35553;BME280;21656;46.054;13.614;2022-09-17T13:53:05;99756.75;;;16.22;81.99
35553;BME280;21656;46.054;13.614;2022-09-17T13:55:38;99757.38;;;15.93;72.83
35553;BME280;21656;46.054;13.614;2022-09-17T14:05:53;99768.56;;;15.98;79.24
35553;BME280;21656;46.054;13.614;2022-09-17T14:30:05;99776.72;;;15.82;69.31
35553;BME280;21656;46.054;13.614;2022-09-17T14:38:22;99772.97;;;15.99;78.80
35553;BME280;21656;46.054;13.614;2022-09-17T14:40:52;99775.34;;;15.94;76.54
35553;BME280;21656;46.054;13.614;2022-09-17T14:45:56;99773.13;;;16.06;79.94
35553;BME280;21656;46.054;13.614;2022-09-17T14:53:48;99787.53;;;16.07;81.32
35553;BME280;21656;46.054;13.614;2022-09-17T14:56:31;99784.19;;;15.96;77.47
35553;BME280;21656;46.054;13.614;2022-09-17T14:58:58;99784.53;;;15.93;81.66
35553;BME280;21656;46.054;13.614;2022-09-17T15:01:27;99786.91;;;15.88;84.11
35553;BME280;21656;46.054;13.614;2022-09-17T15:06:36;99792.00;;;15.91;84.81
35553;BME280;21656;46.054;13.614;2022-09-17T15:09:02;99787.63;;;15.74;84.07
35553;BME280;21656;46.054;13.614;2022-09-17T15:11:29;99796.09;;;15.63;80.78
35553;BME280;21656;46.054;13.614;2022-09-17T15:13:54;99798.09;;;15.69;82.88
35553;BME280;21656;46.054;13.614;2022-09-17T15:16:27;99796.41;;;15.59;82.18
35553;BME280;21656;46.054;13.614;2022-09-17T15:18:58;99800.31;;;15.57;79.42
35553;BME280;21656;46.054;13.614;2022-09-17T15:23:55;99804.25;;;15.63;84.29
35553;BME280;21656;46.054;13.614;2022-09-17T15:26:29;99813.41;;;15.70;88.23
35553;BME280;21656;46.054;13.614;2022-09-17T15:28:56;99820.53;;;15.71;88.69
35553;BME280;21656;46.054;13.614;2022-09-17T15:31:23;99816.44;;;15.67;90.26
35553;BME280;21656;46.054;13.614;2022-09-17T15:33:49;99817.09;;;15.69;91.24
35553;BME280;21656;46.054;13.614;2022-09-17T15:36:20;99818.81;;;15.70;91.49
35553;BME280;21656;46.054;13.614;2022-09-17T15:38:46;99832.03;;;15.65;90.78
35553;BME280;21656;46.054;13.614;2022-09-17T15:43:49;99833.91;;;15.39;91.97
35553;BME280;21656;46.054;13.614;2022-09-17T15:46:28;99828.66;;;15.30;89.89
35553;BME280;21656;46.054;13.614;2022-09-17T15:48:56;99839.16;;;15.25;88.78
35553;BME280;21656;46.054;13.614;2022-09-17T15:51:29;99839.50;;;15.30;91.56
35553;BME280;21656;46.054;13.614;2022-09-17T15:53:57;99840.19;;;15.32;93.24
35553;BME280;21656;46.054;13.614;2022-09-17T15:56:38;99834.38;;;15.18;92.50
35553;BME280;21656;46.054;13.614;2022-09-17T15:59:26;99840.66;;;15.11;92.11
35553;BME280;21656;46.054;13.614;2022-09-17T16:01:54;99847.47;;;15.23;92.93
35553;BME280;21656;46.054;13.614;2022-09-17T16:04:31;99843.75;;;15.32;92.37
35553;BME280;21656;46.054;13.614;2022-09-17T16:09:46;99849.13;;;15.16;94.79
35553;BME280;21656;46.054;13.614;2022-09-17T16:12:19;99851.69;;;15.17;96.01
35553;BME280;21656;46.054;13.614;2022-09-17T16:14:46;99854.75;;;15.14;96.73
35553;BME280;21656;46.054;13.614;2022-09-17T16:19:59;99858.22;;;14.90;99.42
35553;BME280;21656;46.054;13.614;2022-09-17T16:22:25;99861.44;;;14.86;100.00
35553;BME280;21656;46.054;13.614;2022-09-17T16:24:54;99866.84;;;14.78;100.00
35553;BME280;21656;46.054;13.614;2022-09-17T16:27:25;99868.56;;;14.79;100.00